Historique des mesures à Cassis (13260), France
Quotidien Résumé Mai 9, 2017 Unités:  Métrique    US   Métrique/US
« Précédent (Jour)
Suivant (Jour) »
Quotidien Hebdomadaire Mensuel Annuel Période au choix
  Maximum: Minimum: Moyenne:
Température: TemperatureC °C 11.0 °C 16.6 °C
Point de rosée: DewpointC °C 4.9 °C 7.8 °C
Humidité: Humidity % 45 % 54 %
Vitesse du vent: 0 km/h 0 km/h 5.3 km/h
Rafales: 0 km/h - -
Vent:- - ESE
Pression: PressurehPa hPa 1004.6 hPa -
Précipitations: 0.0 mm    
Historical Graphs
 
 
Mesures pour : Mai 9, 2017
Heure Temperature Point de rosée Pression Vent Vitesse du vent Rafales Humidité Pluie (par heure) Conditions
TemperatureC °C DewpointC °C PressurehPa hPa Calm     Humidity % HourlyPrecipMM mm SoftwareType W/m2
00:10 14.4 °C 6.2 °C 1008.4 hPa NNE 26.7 km/h 39.4 km/h 58 % 0.0 mm open2300-1.11 W/m2
01:10 14.0 °C 6.1 °C 1008.0 hPa NNW 1.8 km/h 1.8 km/h 59 % 0.0 mm open2300-1.11 W/m2
02:10 13.2 °C 5.8 °C 1007.7 hPa North 17.4 km/h 17.4 km/h 61 % 0.0 mm open2300-1.11 W/m2
03:10 12.6 °C 5.5 °C 1007.0 hPa North 16.3 km/h 17.4 km/h 62 % 0.0 mm open2300-1.11 W/m2
04:10 12.4 °C 5.3 °C 1006.7 hPa ENE 2.3 km/h 2.3 km/h 62 % 0.0 mm open2300-1.11 W/m2
05:10 11.5 °C 4.9 °C 1006.7 hPa Calm   8.9 km/h 64 % 0.0 mm open2300-1.11 W/m2
06:11 11.0 °C 4.9 °C 1006.0 hPa North 5.1 km/h 8 km/h 66 % 0.0 mm open2300-1.11 W/m2
07:11 11.2 °C 5.1 °C 1006.0 hPa NNW 10.9 km/h 13.2 km/h 66 % 0.0 mm open2300-1.11 W/m2
08:11 15.2 °C 6.7 °C 1005.6 hPa NNE 9.3 km/h 9.3 km/h 57 % 0.0 mm open2300-1.11 W/m2
09:10 14.3 °C 6.4 °C 1006.3 hPa NNE 2.3 km/h 6.9 km/h 59 % 0.0 mm open2300-1.11 W/m2
10:10 16.2 °C 7.7 °C 1006.3 hPa Calm   9.3 km/h 57 % 0.0 mm open2300-1.11 W/m2
11:10 20.4 °C 9.9 °C 1006.7 hPa Calm   3.4 km/h 51 % 0.0 mm open2300-1.11 W/m2
12:10 22.3 °C 10.7 °C 1006.7 hPa SSW 9.8 km/h 11.6 km/h 48 % 0.0 mm open2300-1.11 W/m2
13:10 22.9 °C 10.6 °C 1006.7 hPa SSE 10.9 km/h 10.9 km/h 46 % 0.0 mm open2300-1.11 W/m2
14:10 23.0 °C 10.3 °C 1006.7 hPa South 5.6 km/h 6.9 km/h 45 % 0.0 mm open2300-1.11 W/m2
15:10 22.5 °C 9.9 °C 1006.0 hPa SSE 2.9 km/h 15 km/h 45 % 0.0 mm open2300-1.11 W/m2
16:10 22.4 °C 11.4 °C 1005.6 hPa ESE 4.7 km/h 5.1 km/h 50 % 0.0 mm open2300-1.11 W/m2
17:11 22.1 °C 10.6 °C 1005.3 hPa SE 2.3 km/h 14 km/h 48 % 0.0 mm open2300-1.11 W/m2
18:10 21.4 °C 10.8 °C 1005.3 hPa Calm   4.7 km/h 51 % 0.0 mm open2300-1.11 W/m2
19:10 20.7 °C 10.2 °C 1004.6 hPa SSE 6.4 km/h 6.4 km/h 51 % 0.0 mm open2300-1.11 W/m2
20:10 19.6 °C 9.5 °C 1005.0 hPa Calm     52 % 0.0 mm open2300-1.11 W/m2
21:10 18.3 °C 9.3 °C 1005.3 hPa Calm     56 % 0.0 mm open2300-1.11 W/m2
22:10 16.8 °C 9.0 °C 1005.6 hPa Calm   2.3 km/h 60 % 0.0 mm open2300-1.11 W/m2
23:10 15.9 °C 9.1 °C 1006.3 hPa Calm     64 % 0.0 mm open2300-1.11 W/m2
Observations météo à CASSIS
WU-History script by Weather Underground - 1 mb